King Hakan — V7WI2 — position and weather

sailwx.info

Track history (hours):
 
Tides and Currents Weather Stations Pressure Air Temp Water Temp Dewpoint Dewpoint Depression Visibility Wind Speed Wind Dir Waves Ship Positions

King Hakan

Last reported at 2015-Apr-17 15:25 UTC. Time now 2015-Apr-18 11:44 UTC.
Position S 24°24' W 046°15'.

Length 229 m; draft 13.1 m.

Type: Cargo ship. MMSI: 538090439.

Date/timePositionNaut miles runAvg speedWind from/ knotsBaromVisibWave heightAir tempDewpointWater temp
2015-Apr-17 15:25S 24°24' W 046°15'911.0
2015-Apr-17 14:34S 24°16' W 046°19'1110.7
2015-Apr-17 13:33S 24°06' W 046°22'8 8.0
2015-Apr-17 12:33S 23°59' W 046°17'1 0.8
2015-Apr-17 11:31S 23°58' W 046°17'0 0.0
2015-Apr-17 10:28S 23°58' W 046°17'0 0.0
2015-Apr-17 09:31S 23°58' W 046°17'0 0.0
2015-Apr-17 08:31S 23°58' W 046°17'0 0.0
2015-Apr-17 07:31S 23°58' W 046°17'0 0.0
2015-Apr-17 06:31S 23°58' W 046°17'0 0.0
2015-Apr-17 05:31S 23°58' W 046°17'0 0.0
2015-Apr-17 04:31S 23°58' W 046°17'0 0.0
2015-Apr-17 03:31S 23°58' W 046°17'0 0.0
2015-Apr-17 02:31S 23°58' W 046°17'0 0.0
2015-Apr-17 01:28S 23°58' W 046°17'0 0.0
2015-Apr-17 00:31S 23°58' W 046°17'0 0.0
2015-Apr-16 23:25S 23°58' W 046°17'0 0.0
2015-Apr-16 22:31S 23°58' W 046°17'0 0.0
2015-Apr-16 21:31S 23°58' W 046°17'0 0.0
2015-Apr-16 20:25S 23°58' W 046°17'0 0.0
2015-Apr-16 19:31S 23°58' W 046°17'0 0.0
2015-Apr-16 18:31S 23°58' W 046°17'0 0.0
2015-Apr-16 17:31S 23°58' W 046°17'0 0.0
2015-Apr-16 16:28S 23°58' W 046°17'0 0.0
2015-Apr-16 15:31S 23°58' W 046°17'0 0.0
2015-Apr-16 14:28S 23°58' W 046°17'0 0.0
2015-Apr-16 13:31S 23°58' W 046°17'0 0.0
2015-Apr-16 12:31S 23°58' W 046°17'0 0.0
2015-Apr-16 11:31S 23°58' W 046°17'0 0.0
2015-Apr-16 10:31S 23°58' W 046°17'0 0.0
2015-Apr-16 09:31S 23°58' W 046°17'0 0.0
2015-Apr-16 08:31S 23°58' W 046°17'0 0.0
2015-Apr-16 07:31S 23°58' W 046°17'0 0.0
2015-Apr-16 06:31S 23°58' W 046°17'0 0.0
2015-Apr-16 05:31S 23°58' W 046°17'0 0.0
2015-Apr-16 04:28S 23°58' W 046°17'0 0.0
2015-Apr-16 03:31S 23°58' W 046°17'0 0.0
2015-Apr-16 02:25S 23°58' W 046°17'0 0.0
2015-Apr-16 01:25S 23°58' W 046°17'0 0.0
2015-Apr-16 00:25S 23°58' W 046°17'0 0.0
2015-Apr-15 23:31S 23°58' W 046°17'0 0.0
2015-Apr-15 22:31S 23°58' W 046°17'0 0.0
2015-Apr-15 21:31S 23°58' W 046°17'0 0.0
2015-Apr-15 20:31S 23°58' W 046°17'0 0.0
2015-Apr-15 19:31S 23°58' W 046°17'0 0.0
2015-Apr-15 18:31S 23°58' W 046°17'0 0.0
2015-Apr-15 17:28S 23°58' W 046°17'0 0.0
2015-Apr-15 16:31S 23°58' W 046°17'0 0.0
2015-Apr-15 15:28S 23°58' W 046°17'0 0.0
2015-Apr-15 14:30S 23°58' W 046°17'0 0.0
2015-Apr-15 13:31S 23°58' W 046°17'0 0.0
2015-Apr-15 12:31S 23°58' W 046°17'0 0.0
2015-Apr-15 11:31S 23°58' W 046°17'0 0.0
2015-Apr-15 10:28S 23°58' W 046°17'0 0.0
2015-Apr-15 09:31S 23°58' W 046°17'0 0.0
2015-Apr-15 08:34S 23°58' W 046°17'0 0.0
2015-Apr-15 07:27S 23°58' W 046°17'0 0.0
2015-Apr-15 06:34S 23°58' W 046°17'0 0.0
2015-Apr-15 05:33S 23°58' W 046°17'0 0.0
2015-Apr-15 04:34S 23°58' W 046°17'0 0.0
2015-Apr-15 03:28S 23°58' W 046°17'0 0.0
2015-Apr-15 02:31S 23°58' W 046°17'0 0.0
2015-Apr-15 01:34S 23°58' W 046°17'0 0.0
2015-Apr-15 00:33S 23°58' W 046°17'0 0.0
2015-Apr-14 23:33S 23°58' W 046°17'0 0.0
2015-Apr-14 22:25S 23°58' W 046°17'0 0.0
2015-Apr-14 21:31S 23°58' W 046°17'0 0.0
2015-Apr-14 20:33S 23°58' W 046°17'0 0.0
2015-Apr-14 19:33S 23°58' W 046°17'1 1.1
2015-Apr-14 18:33S 23°59' W 046°17'5 5.4
2015-Apr-14 17:33S 24°03' W 046°21'0 0.5
2015-Apr-14 16:32S 24°04' W 046°21'0 0.0
2015-Apr-14 15:32S 24°04' W 046°21'1 0.7
2015-Apr-14 14:33S 24°03' W 046°21'2 2.0
2015-Apr-14 13:29S 24°01' W 046°20'0 0.0
2015-Apr-14 12:29S 24°01' W 046°20'0 0.0
2015-Apr-14 11:32S 24°01' W 046°20'0 0.2
2015-Apr-14 10:33S 24°01' W 046°20'1 1.3
2015-Apr-14 09:34S 24°02' W 046°21'6 6.5
2015-Apr-14 08:34S 24°09' W 046°21'2 2.3
2015-Apr-14 07:31S 24°11' W 046°19'0 0.0
2015-Apr-14 06:31S 24°11' W 046°19'0 0.0
2015-Apr-14 05:31S 24°11' W 046°19'0 0.0
2015-Apr-14 04:28S 24°11' W 046°19'0 0.0
2015-Apr-14 03:31S 24°11' W 046°19'0 0.0
2015-Apr-14 02:31S 24°11' W 046°19'0 0.0
2015-Apr-14 01:25S 24°11' W 046°19'0 0.0
2015-Apr-14 00:28S 24°11' W 046°19'0 0.2
2015-Apr-13 23:34S 24°11' W 046°19'3 3.5
2015-Apr-13 22:33S 24°14' W 046°18'1211.4
2015-Apr-13 21:32S 24°25' W 046°14'1212.5
2015-Apr-13 20:34S 24°28' W 046°00'  
Track history (hours):
 
Tides and Currents Weather Stations Pressure Air Temp Water Temp Dewpoint Dewpoint Depression Visibility Wind Speed Wind Dir Waves Ship Positions

King Hakan

Last reported at 2015-Apr-17 15:25 UTC. Time now 2015-Apr-18 11:44 UTC.
Position S 24°24' W 046°15'.

Length 229 m; draft 13.1 m.

Type: Cargo ship. MMSI: 538090439.

Date/timePositionNaut miles runAvg speedWind from/ knotsBaromVisibWave heightAir tempDewpointWater temp
2015-Apr-17 15:25S 24°24' W 046°15'911.0
2015-Apr-17 14:34S 24°16' W 046°19'1110.7
2015-Apr-17 13:33S 24°06' W 046°22'8 8.0
2015-Apr-17 12:33S 23°59' W 046°17'1 0.8
2015-Apr-17 11:31S 23°58' W 046°17'0 0.0
2015-Apr-17 10:28S 23°58' W 046°17'0 0.0
2015-Apr-17 09:31S 23°58' W 046°17'0 0.0
2015-Apr-17 08:31S 23°58' W 046°17'0 0.0
2015-Apr-17 07:31S 23°58' W 046°17'0 0.0
2015-Apr-17 06:31S 23°58' W 046°17'0 0.0
2015-Apr-17 05:31S 23°58' W 046°17'0 0.0
2015-Apr-17 04:31S 23°58' W 046°17'0 0.0
2015-Apr-17 03:31S 23°58' W 046°17'0 0.0
2015-Apr-17 02:31S 23°58' W 046°17'0 0.0
2015-Apr-17 01:28S 23°58' W 046°17'0 0.0
2015-Apr-17 00:31S 23°58' W 046°17'0 0.0
2015-Apr-16 23:25S 23°58' W 046°17'0 0.0
2015-Apr-16 22:31S 23°58' W 046°17'0 0.0
2015-Apr-16 21:31S 23°58' W 046°17'0 0.0
2015-Apr-16 20:25S 23°58' W 046°17'0 0.0
2015-Apr-16 19:31S 23°58' W 046°17'0 0.0
2015-Apr-16 18:31S 23°58' W 046°17'0 0.0
2015-Apr-16 17:31S 23°58' W 046°17'0 0.0
2015-Apr-16 16:28S 23°58' W 046°17'0 0.0
2015-Apr-16 15:31S 23°58' W 046°17'0 0.0
2015-Apr-16 14:28S 23°58' W 046°17'0 0.0
2015-Apr-16 13:31S 23°58' W 046°17'0 0.0
2015-Apr-16 12:31S 23°58' W 046°17'0 0.0
2015-Apr-16 11:31S 23°58' W 046°17'0 0.0
2015-Apr-16 10:31S 23°58' W 046°17'0 0.0
2015-Apr-16 09:31S 23°58' W 046°17'0 0.0
2015-Apr-16 08:31S 23°58' W 046°17'0 0.0
2015-Apr-16 07:31S 23°58' W 046°17'0 0.0
2015-Apr-16 06:31S 23°58' W 046°17'0 0.0
2015-Apr-16 05:31S 23°58' W 046°17'0 0.0
2015-Apr-16 04:28S 23°58' W 046°17'0 0.0
2015-Apr-16 03:31S 23°58' W 046°17'0 0.0
2015-Apr-16 02:25S 23°58' W 046°17'0 0.0
2015-Apr-16 01:25S 23°58' W 046°17'0 0.0
2015-Apr-16 00:25S 23°58' W 046°17'0 0.0
2015-Apr-15 23:31S 23°58' W 046°17'0 0.0
2015-Apr-15 22:31S 23°58' W 046°17'0 0.0
2015-Apr-15 21:31S 23°58' W 046°17'0 0.0
2015-Apr-15 20:31S 23°58' W 046°17'0 0.0
2015-Apr-15 19:31S 23°58' W 046°17'0 0.0
2015-Apr-15 18:31S 23°58' W 046°17'0 0.0
2015-Apr-15 17:28S 23°58' W 046°17'0 0.0
2015-Apr-15 16:31S 23°58' W 046°17'0 0.0
2015-Apr-15 15:28S 23°58' W 046°17'0 0.0
2015-Apr-15 14:30S 23°58' W 046°17'0 0.0
2015-Apr-15 13:31S 23°58' W 046°17'0 0.0
2015-Apr-15 12:31S 23°58' W 046°17'0 0.0
2015-Apr-15 11:31S 23°58' W 046°17'0 0.0
2015-Apr-15 10:28S 23°58' W 046°17'0 0.0
2015-Apr-15 09:31S 23°58' W 046°17'0 0.0
2015-Apr-15 08:34S 23°58' W 046°17'0 0.0
2015-Apr-15 07:27S 23°58' W 046°17'0 0.0
2015-Apr-15 06:34S 23°58' W 046°17'0 0.0
2015-Apr-15 05:33S 23°58' W 046°17'0 0.0
2015-Apr-15 04:34S 23°58' W 046°17'0 0.0
2015-Apr-15 03:28S 23°58' W 046°17'0 0.0
2015-Apr-15 02:31S 23°58' W 046°17'0 0.0
2015-Apr-15 01:34S 23°58' W 046°17'0 0.0
2015-Apr-15 00:33S 23°58' W 046°17'0 0.0
2015-Apr-14 23:33S 23°58' W 046°17'0 0.0
2015-Apr-14 22:25S 23°58' W 046°17'0 0.0
2015-Apr-14 21:31S 23°58' W 046°17'0 0.0
2015-Apr-14 20:33S 23°58' W 046°17'0 0.0
2015-Apr-14 19:33S 23°58' W 046°17'1 1.1
2015-Apr-14 18:33S 23°59' W 046°17'5 5.4
2015-Apr-14 17:33S 24°03' W 046°21'0 0.5
2015-Apr-14 16:32S 24°04' W 046°21'0 0.0
2015-Apr-14 15:32S 24°04' W 046°21'1 0.7
2015-Apr-14 14:33S 24°03' W 046°21'2 2.0
2015-Apr-14 13:29S 24°01' W 046°20'0 0.0
2015-Apr-14 12:29S 24°01' W 046°20'0 0.0
2015-Apr-14 11:32S 24°01' W 046°20'0 0.2
2015-Apr-14 10:33S 24°01' W 046°20'1 1.3
2015-Apr-14 09:34S 24°02' W 046°21'6 6.5
2015-Apr-14 08:34S 24°09' W 046°21'2 2.3
2015-Apr-14 07:31S 24°11' W 046°19'0 0.0
2015-Apr-14 06:31S 24°11' W 046°19'0 0.0
2015-Apr-14 05:31S 24°11' W 046°19'0 0.0
2015-Apr-14 04:28S 24°11' W 046°19'0 0.0
2015-Apr-14 03:31S 24°11' W 046°19'0 0.0
2015-Apr-14 02:31S 24°11' W 046°19'0 0.0
2015-Apr-14 01:25S 24°11' W 046°19'0 0.0
2015-Apr-14 00:28S 24°11' W 046°19'0 0.2
2015-Apr-13 23:34S 24°11' W 046°19'3 3.5
2015-Apr-13 22:33S 24°14' W 046°18'1211.4
2015-Apr-13 21:32S 24°25' W 046°14'1212.5
2015-Apr-13 20:34S 24°28' W 046°00'  

Dump ship's entire track history